createdAt,value
2022-10-26T00:00:28.625Z,63.50
2022-10-26T00:05:33.207Z,63.90
2022-10-26T00:10:36.182Z,61.30
2022-10-26T00:15:42.973Z,65.90
2022-10-26T00:20:44.848Z,61.70
2022-10-26T00:25:54.470Z,73.80
2022-10-26T00:31:01.822Z,59.00
2022-10-26T00:36:04.631Z,57.50
2022-10-26T00:41:06.710Z,55.70
2022-10-26T00:46:32.312Z,62.40
2022-10-26T00:51:44.863Z,49.10
2022-10-26T00:56:54.377Z,53.10
2022-10-26T01:01:56.275Z,56.00
2022-10-26T01:06:59.294Z,52.80
2022-10-26T01:12:01.325Z,51.70
2022-10-26T01:17:28.618Z,54.50
2022-10-26T01:22:35.409Z,52.60
2022-10-26T01:27:47.563Z,53.70
2022-10-26T01:33:08.489Z,46.40
2022-10-26T01:38:15.065Z,65.70
2022-10-26T01:43:18.741Z,57.60
2022-10-26T01:48:23.063Z,58.80
2022-10-26T01:53:28.608Z,57.60
2022-10-26T01:58:55.036Z,50.70
2022-10-26T02:04:27.539Z,46.40
2022-10-26T02:09:39.158Z,48.00
2022-10-26T02:14:49.062Z,57.00
2022-10-26T02:19:59.541Z,53.20
2022-10-26T02:25:09.331Z,48.90
2022-10-26T02:30:13.120Z,48.40
2022-10-26T02:35:16.904Z,51.50
2022-10-26T02:40:22.405Z,63.50
2022-10-26T02:45:29.529Z,48.70
2022-10-26T02:50:54.328Z,52.80
2022-10-26T02:55:58.586Z,44.30
2022-10-26T03:01:00.706Z,42.70
2022-10-26T03:06:02.681Z,58.40
2022-10-26T03:11:04.598Z,56.90
2022-10-26T03:16:06.941Z,51.70
2022-10-26T03:21:08.830Z,59.80
2022-10-26T03:26:10.657Z,60.10
2022-10-26T03:31:12.884Z,59.50
2022-10-26T03:36:14.917Z,48.90
2022-10-26T03:41:16.900Z,46.30
2022-10-26T03:46:19.230Z,61.50
2022-10-26T03:51:21.433Z,59.70
2022-10-26T03:56:23.505Z,60.40
2022-10-26T04:01:25.521Z,48.90
2022-10-26T04:06:27.760Z,48.10
2022-10-26T04:11:30.030Z,54.20
2022-10-26T04:16:33.458Z,53.20
2022-10-26T04:21:35.544Z,51.60
2022-10-26T04:26:37.702Z,49.10
2022-10-26T04:31:39.929Z,45.00
2022-10-26T04:36:42.071Z,49.70
2022-10-26T04:41:44.118Z,52.70
2022-10-26T04:46:46.060Z,64.80
2022-10-26T04:51:48.243Z,66.60
2022-10-26T04:56:51.737Z,59.30
2022-10-26T05:01:53.575Z,45.50
2022-10-26T05:06:55.754Z,45.90
2022-10-26T05:11:57.561Z,62.00
2022-10-26T05:16:59.462Z,56.90
2022-10-26T05:22:01.396Z,43.30
2022-10-26T05:27:03.349Z,55.30
2022-10-26T05:32:05.207Z,62.20
2022-10-26T05:37:06.989Z,57.10
2022-10-26T05:42:09.323Z,53.40
2022-10-26T05:47:11.092Z,58.60
2022-10-26T05:52:23.927Z,95.00
2022-10-26T05:57:26.885Z,105.20
2022-10-26T06:02:48.296Z,129.70
2022-10-26T06:07:51.069Z,102.50
2022-10-26T06:12:54.127Z,106.30
2022-10-26T06:18:02.267Z,66.10
2022-10-26T06:23:30.421Z,67.90
2022-10-26T06:33:40.928Z,52.50
2022-10-26T06:38:44.776Z,60.20
2022-10-26T06:43:47.368Z,64.10
2022-10-26T06:49:24.007Z,64.10
2022-10-26T06:54:54.786Z,70.80
2022-10-26T07:00:04.882Z,63.80
2022-10-26T07:05:12.807Z,63.70
2022-10-26T07:10:28.970Z,49.20
2022-10-26T07:15:45.127Z,40.60
2022-10-26T07:20:47.039Z,37.80
2022-10-26T07:25:48.797Z,35.80
2022-10-26T07:30:55.256Z,37.40
2022-10-26T07:41:02.464Z,38.70
2022-10-26T07:46:04.586Z,44.40
2022-10-26T07:51:06.418Z,36.30
2022-10-26T07:56:10.545Z,33.60
2022-10-26T08:01:14.957Z,33.90
2022-10-26T08:06:17.013Z,32.80
2022-10-26T08:11:19.309Z,31.50
2022-10-26T08:16:22.530Z,32.90
2022-10-26T08:21:36.087Z,29.50
2022-10-26T08:26:42.295Z,28.60
2022-10-26T08:31:45.103Z,26.90
2022-10-26T08:36:47.307Z,24.10
2022-10-26T08:41:56.374Z,21.70
2022-10-26T08:47:04.462Z,18.80
2022-10-26T08:52:09.771Z,30.90
2022-10-26T08:57:26.922Z,18.60
2022-10-26T09:02:29.443Z,24.60
2022-10-26T09:07:59.207Z,25.80
2022-10-26T09:13:24.753Z,16.90
2022-10-26T09:24:05.251Z,17.90
2022-10-26T09:29:12.796Z,19.70
2022-10-26T09:34:20.671Z,18.90
2022-10-26T09:39:40.168Z,13.70
2022-10-26T09:45:18.098Z,15.50
2022-10-26T09:50:26.268Z,14.50
2022-10-26T09:55:30.540Z,11.70
2022-10-26T10:05:53.268Z,16.50
2022-10-26T10:10:57.317Z,16.70
2022-10-26T10:16:04.845Z,17.20
2022-10-26T10:21:08.183Z,11.60
2022-10-26T10:26:25.019Z,15.10
2022-10-26T10:31:32.422Z,18.30
2022-10-26T10:36:34.522Z,14.40
2022-10-26T10:41:36.864Z,16.10
2022-10-26T10:46:38.989Z,14.80
2022-10-26T10:51:41.558Z,13.30
2022-10-26T10:56:52.201Z,15.30
2022-10-26T11:02:03.737Z,11.40
2022-10-26T11:07:07.799Z,11.40
2022-10-26T11:12:18.119Z,8.40
2022-10-26T11:17:24.139Z,7.30
2022-10-26T11:22:36.003Z,8.30
2022-10-26T11:27:56.477Z,14.00
2022-10-26T11:33:13.965Z,9.40
2022-10-26T11:44:03.979Z,9.10
2022-10-26T11:49:42.258Z,6.70
2022-10-26T11:54:55.641Z,5.70
2022-10-26T12:00:03.018Z,11.70
2022-10-26T12:05:16.249Z,9.80
2022-10-26T12:10:40.969Z,6.50
2022-10-26T12:16:09.906Z,4.90
2022-10-26T12:21:15.145Z,10.00
2022-10-26T12:26:40.111Z,5.90
2022-10-26T12:31:43.817Z,8.10
2022-10-26T12:36:49.325Z,9.40
2022-10-26T12:42:09.431Z,7.00
2022-10-26T12:47:31.462Z,8.40
2022-10-26T12:52:56.949Z,7.30
2022-10-26T12:58:28.274Z,5.90
2022-10-26T13:03:39.207Z,8.10
2022-10-26T13:09:04.021Z,6.80
2022-10-26T13:14:16.417Z,9.30
2022-10-26T13:19:43.589Z,5.40
2022-10-26T13:24:54.703Z,3.30
2022-10-26T13:30:05.301Z,7.40
2022-10-26T13:35:13.414Z,3.70
2022-10-26T13:40:25.375Z,6.80
2022-10-26T13:45:49.492Z,7.00
2022-10-26T13:50:54.906Z,5.20
2022-10-26T13:56:08.809Z,7.70
2022-10-26T14:01:11.994Z,6.30
2022-10-26T14:06:23.944Z,7.80
2022-10-26T14:11:49.161Z,6.70
2022-10-26T14:16:53.525Z,6.40
2022-10-26T14:21:56.637Z,7.70
2022-10-26T14:26:59.600Z,5.40
2022-10-26T14:32:01.366Z,6.80
2022-10-26T14:37:06.056Z,10.50
2022-10-26T14:42:19.154Z,9.80
2022-10-26T14:47:27.179Z,8.60
2022-10-26T14:52:32.853Z,18.00
2022-10-26T14:57:37.641Z,4.60
2022-10-26T15:02:40.214Z,9.40
2022-10-26T15:07:44.785Z,12.60
2022-10-26T15:12:47.008Z,8.00
2022-10-26T15:17:54.661Z,11.10
2022-10-26T15:23:03.522Z,13.00
2022-10-26T15:28:21.304Z,10.60
2022-10-26T15:33:23.059Z,17.10
2022-10-26T15:38:28.586Z,33.70
2022-10-26T15:43:31.798Z,93.20
2022-10-26T15:48:34.386Z,30.40
2022-10-26T15:53:36.363Z,26.40
2022-10-26T15:58:38.393Z,26.20
2022-10-26T16:03:40.332Z,18.20
2022-10-26T16:08:49.203Z,20.10
2022-10-26T16:13:51.523Z,21.30
2022-10-26T16:19:01.608Z,22.10
2022-10-26T16:24:17.434Z,22.30
2022-10-26T16:29:20.538Z,21.70
2022-10-26T16:34:32.441Z,30.80
2022-10-26T16:39:34.945Z,46.00
2022-10-26T16:44:38.337Z,42.80
2022-10-26T16:49:49.842Z,38.80
2022-10-26T16:54:55.017Z,58.90
2022-10-26T16:59:57.879Z,60.70
2022-10-26T17:05:02.732Z,26.70
2022-10-26T17:10:08.565Z,29.50
2022-10-26T17:15:13.703Z,31.30
2022-10-26T17:20:17.187Z,43.10
2022-10-26T17:25:19.264Z,29.00
2022-10-26T17:30:21.101Z,38.20
2022-10-26T17:35:23.457Z,39.00
2022-10-26T17:40:25.739Z,43.00
2022-10-26T17:45:28.211Z,108.60
2022-10-26T17:50:30.363Z,93.90
2022-10-26T17:55:32.372Z,70.40
2022-10-26T18:00:34.450Z,76.90
2022-10-26T18:05:36.204Z,90.70
2022-10-26T18:10:38.473Z,68.80
2022-10-26T18:15:40.795Z,112.80
2022-10-26T18:20:42.940Z,81.00
2022-10-26T18:25:44.885Z,102.10
2022-10-26T18:30:46.977Z,84.20
2022-10-26T18:35:48.901Z,103.60
2022-10-26T18:40:56.283Z,81.20
2022-10-26T18:46:18.970Z,101.10
2022-10-26T18:51:26.229Z,125.70
2022-10-26T18:56:28.511Z,104.60
2022-10-26T19:01:34.170Z,105.60
2022-10-26T19:06:45.111Z,131.40
2022-10-26T19:11:47.356Z,108.60
2022-10-26T19:16:53.537Z,103.70
2022-10-26T19:21:56.121Z,110.60
2022-10-26T19:26:59.135Z,106.10
2022-10-26T19:32:02.971Z,71.70
2022-10-26T19:37:05.654Z,90.90
2022-10-26T19:42:07.833Z,88.10
2022-10-26T19:47:10.321Z,73.60
2022-10-26T19:52:14.284Z,77.70
2022-10-26T19:57:19.526Z,75.90
2022-10-26T20:02:21.305Z,111.60
2022-10-26T20:07:23.367Z,69.30
2022-10-26T20:12:26.576Z,64.70
2022-10-26T20:17:28.946Z,69.20
2022-10-26T20:22:30.779Z,69.80
2022-10-26T20:27:32.591Z,72.00
2022-10-26T20:32:34.799Z,65.70
2022-10-26T20:37:37.085Z,74.10
2022-10-26T20:42:39.671Z,77.30
2022-10-26T20:47:45.566Z,77.80
2022-10-26T20:52:55.359Z,68.20
2022-10-26T20:58:07.632Z,72.30
2022-10-26T21:03:10.074Z,79.30
2022-10-26T21:08:12.003Z,76.30
2022-10-26T21:18:29.890Z,76.60
2022-10-26T21:23:36.766Z,72.70
2022-10-26T21:28:46.956Z,74.10
2022-10-26T21:33:49.156Z,82.00
2022-10-26T21:38:51.266Z,68.70
2022-10-26T21:44:03.375Z,63.20
2022-10-26T21:49:11.096Z,64.20
2022-10-26T21:54:13.219Z,63.80
2022-10-26T21:59:15.298Z,66.30
2022-10-26T22:04:18.833Z,65.60
2022-10-26T22:09:20.865Z,70.50
2022-10-26T22:14:22.757Z,67.60
2022-10-26T22:19:24.875Z,68.10
2022-10-26T22:24:26.643Z,68.50
2022-10-26T22:29:28.750Z,67.90
2022-10-26T22:34:30.967Z,64.40
2022-10-26T22:39:32.717Z,69.40
2022-10-26T22:44:34.797Z,62.50
2022-10-26T22:49:36.816Z,67.60
2022-10-26T22:54:38.635Z,70.50
2022-10-26T22:59:40.393Z,74.90
2022-10-26T23:04:42.276Z,69.50
2022-10-26T23:09:49.793Z,58.40
2022-10-26T23:14:57.573Z,64.80
2022-10-26T23:20:02.410Z,68.10
2022-10-26T23:25:04.738Z,64.70
2022-10-26T23:30:07.894Z,68.10
2022-10-26T23:35:10.017Z,64.40
2022-10-26T23:40:12.425Z,59.60
2022-10-26T23:45:14.182Z,61.70
2022-10-26T23:50:16.592Z,60.90
2022-10-26T23:55:18.618Z,60.20
